Time;durP1;ratioP1;P1;durP2;ratioP2;P2;SDS_P1;SDS_P2;PMS_P1;PMS_P2;Temp;Humidity;BMP_temperature;BMP_pressure;BME280_temperature;BME280_humidity;BME280_pressure;Samples;Min_cycle;Max_cycle;Signal;HPM_P1;HPM_P2
2022/07/12 00:00:37;;;;;;;9.57;8.97;;;;;;;13.96;57.47;93256.69;5078025;28;20185;-72
2022/07/12 00:03:03;;;;;;;8.13;7.57;;;;;;;13.96;56.87;93258.56;5076503;28;20186;-72
2022/07/12 00:05:28;;;;;;;8.07;7.77;;;;;;;13.65;57.12;93237.13;5080368;28;20192;-71
2022/07/12 00:07:53;;;;;;;8.97;8.47;;;;;;;13.83;57.52;93257.41;5078967;28;20189;-71
2022/07/12 00:10:19;;;;;;;8.73;8.43;;;;;;;13.74;56.95;93269.56;5077678;28;20248;-72
2022/07/12 00:12:44;;;;;;;7.83;7.43;;;;;;;13.71;57.00;93249.13;5077637;28;20225;-71
2022/07/12 00:15:10;;;;;;;8.53;8.23;;;;;;;13.76;57.10;93251.69;5060528;28;20189;-69
2022/07/12 00:17:35;;;;;;;8.87;8.50;;;;;;;13.88;57.54;93264.44;5078722;28;20244;-73
2022/07/12 00:20:00;;;;;;;9.20;8.80;;;;;;;13.86;57.33;93262.09;5079735;28;20189;-73
2022/07/12 00:22:28;;;;;;;9.93;9.40;;;;;;;13.79;56.43;93259.00;5076265;28;20223;-72
2022/07/12 00:24:54;;;;;;;9.93;9.33;;;;;;;13.91;55.85;93251.53;5076234;28;20170;-71
2022/07/12 00:27:19;;;;;;;8.50;8.00;;;;;;;13.94;56.47;93253.59;5082890;28;20340;-71
2022/07/12 00:29:45;;;;;;;8.27;7.77;;;;;;;13.84;57.82;93258.94;5080845;28;20185;-71
2022/07/12 00:32:10;;;;;;;8.73;8.23;;;;;;;13.74;57.30;93237.31;5084419;28;20362;-71
2022/07/12 00:34:36;;;;;;;8.50;7.93;;;;;;;13.78;57.97;93248.78;5081913;28;20199;-72
2022/07/12 00:37:01;;;;;;;9.00;8.60;;;;;;;13.54;58.49;93240.94;5078650;28;20288;-71
2022/07/12 00:39:27;;;;;;;9.27;8.87;;;;;;;13.63;56.43;93246.38;5063087;28;20183;-71
2022/07/12 00:41:52;;;;;;;8.90;8.50;;;;;;;13.68;56.30;93260.19;5079786;28;20239;-72
2022/07/12 00:44:18;;;;;;;9.60;9.10;;;;;;;13.73;56.66;93259.34;5080762;28;20241;-72
2022/07/12 00:46:44;;;;;;;9.30;8.90;;;;;;;13.65;56.56;93242.38;5083181;28;20245;-71
2022/07/12 00:49:15;;;;;;;8.90;8.50;;;;;;;13.74;56.82;93256.44;5061497;28;20226;-71
2022/07/12 00:51:42;;;;;;;9.27;8.77;;;;;;;13.72;56.52;93253.34;5077968;28;20283;-72
2022/07/12 00:54:07;;;;;;;8.30;7.90;;;;;;;13.76;56.57;93245.69;5083484;28;20227;-72
2022/07/12 00:56:33;;;;;;;9.70;9.17;;;;;;;13.69;57.26;93235.53;5080648;28;20225;-72
2022/07/12 00:58:58;;;;;;;7.97;7.67;;;;;;;13.68;56.64;93233.97;5081513;28;20185;-72
2022/07/12 01:01:24;;;;;;;8.53;8.13;;;;;;;13.79;57.15;93245.88;5081767;28;20236;-72
2022/07/12 01:03:50;;;;;;;9.13;8.63;;;;;;;13.74;57.66;93251.19;5082094;28;20207;-72
2022/07/12 01:06:17;;;;;;;8.43;7.93;;;;;;;13.75;57.32;93252.00;5082563;28;20267;-72
2022/07/12 01:08:42;;;;;;;8.97;7.77;;;;;;;13.67;57.77;93231.63;5079234;28;20173;-72
2022/07/12 01:11:08;;;;;;;8.70;8.27;;;;;;;13.67;58.46;93229.00;5083187;28;20279;-71
2022/07/12 01:13:35;;;;;;;8.73;8.13;;;;;;;13.57;57.82;93213.38;5081447;28;20189;-72
2022/07/12 01:16:01;;;;;;;9.33;8.83;;;;;;;13.73;57.39;93244.41;5081002;28;20232;-72
2022/07/12 01:18:28;;;;;;;9.23;8.60;;;;;;;13.82;57.44;93245.31;5082165;28;20262;-72
2022/07/12 01:20:54;;;;;;;8.73;8.23;;;;;;;13.83;58.43;93240.88;5078566;28;20218;-72
2022/07/12 01:23:22;;;;;;;8.50;8.10;;;;;;;13.74;58.38;93237.31;5080218;28;20230;-73
2022/07/12 01:25:47;;;;;;;9.27;8.87;;;;;;;13.66;57.13;93230.84;5080033;28;20228;-73
2022/07/12 01:28:12;;;;;;;8.90;8.30;;;;;;;13.64;57.87;93235.59;5081791;28;20196;-73
2022/07/12 01:30:39;;;;;;;8.07;7.67;;;;;;;13.75;58.18;93239.66;5078197;28;20204;-72
2022/07/12 01:33:05;;;;;;;8.97;8.43;;;;;;;13.77;57.13;93239.38;5079478;28;20200;-72
2022/07/12 01:35:31;;;;;;;8.77;8.47;;;;;;;13.82;58.55;93240.06;5081189;28;20200;-73
2022/07/12 01:37:57;;;;;;;8.90;8.10;;;;;;;13.73;57.40;93239.16;5078620;28;20193;-72
2022/07/12 01:40:23;;;;;;;8.50;8.00;;;;;;;13.72;57.39;93224.47;5065159;28;20263;-72
2022/07/12 01:42:50;;;;;;;9.80;9.00;;;;;;;13.70;58.25;93241.53;5078625;28;20321;-72
2022/07/12 01:45:16;;;;;;;8.30;7.80;;;;;;;13.58;57.92;93228.84;5082569;28;20188;-71
2022/07/12 01:47:41;;;;;;;9.40;8.90;;;;;;;13.40;58.55;93200.72;5080599;28;20217;-72
2022/07/12 01:50:09;;;;;;;7.37;6.80;;;;;;;13.75;59.07;93239.66;5078788;28;20189;-72
2022/07/12 01:52:36;;;;;;;8.20;7.73;;;;;;;13.55;59.16;93226.78;5082979;28;20263;-72
2022/07/12 01:55:02;;;;;;;9.57;9.07;;;;;;;13.54;59.98;93222.59;5078428;28;20207;-71
2022/07/12 01:57:28;;;;;;;8.97;8.53;;;;;;;13.64;60.26;93243.47;5080603;28;20250;-74
2022/07/12 01:59:55;;;;;;;8.73;7.93;;;;;;;13.63;60.47;93233.25;5080383;28;20694;-72
2022/07/12 02:02:23;;;;;;;8.97;8.57;;;;;;;13.64;60.15;93240.06;5080834;28;20238;-72
2022/07/12 02:04:48;;;;;;;9.00;8.50;;;;;;;13.54;61.05;93232.31;5078923;28;20184;-73
2022/07/12 02:07:13;;;;;;;8.53;8.13;;;;;;;13.51;61.88;93233.66;5075833;28;20229;-72
2022/07/12 02:09:39;;;;;;;9.67;9.20;;;;;;;13.48;60.13;93244.69;5080528;28;20229;-72
2022/07/12 02:12:04;;;;;;;8.10;7.70;;;;;;;13.23;61.26;93223.25;5082742;28;20244;-72
2022/07/12 02:14:30;;;;;;;9.63;9.00;;;;;;;13.45;62.73;93237.38;5079328;28;20215;-72
2022/07/12 02:16:55;;;;;;;8.70;8.17;;;;;;;13.40;63.14;93232.19;5080841;28;20231;-72
2022/07/12 02:19:21;;;;;;;7.97;7.67;;;;;;;13.35;62.44;93229.66;5081523;28;20519;-72
2022/07/12 02:21:46;;;;;;;9.90;9.30;;;;;;;13.43;62.39;93242.13;5080277;28;20942;-72
2022/07/12 02:24:12;;;;;;;8.43;7.93;;;;;;;13.25;64.16;93240.25;5081086;28;20200;-72
2022/07/12 02:26:38;;;;;;;8.90;8.30;;;;;;;13.21;64.38;93249.75;5078825;28;20225;-72
2022/07/12 02:29:04;;;;;;;9.57;9.07;;;;;;;13.00;65.00;93240.50;5063821;28;20924;-72
2022/07/12 02:31:30;;;;;;;7.90;7.60;;;;;;;12.84;65.56;93244.31;5079105;28;20225;-72
2022/07/12 02:33:56;;;;;;;12.83;9.47;;;;;;;12.90;66.04;93243.22;5078201;28;20180;-71
2022/07/12 02:36:21;;;;;;;9.80;9.27;;;;;;;12.94;66.35;93238.97;5080492;28;20236;-71
2022/07/12 02:38:47;;;;;;;9.70;9.20;;;;;;;12.85;67.01;93241.41;5082463;28;20209;-71
2022/07/12 02:41:12;;;;;;;9.43;8.93;;;;;;;12.67;67.11;93226.38;5079730;28;20219;-72
2022/07/12 02:43:38;;;;;;;9.87;9.07;;;;;;;12.51;69.05;93214.44;5059602;28;20196;-72
2022/07/12 02:46:04;;;;;;;8.63;8.23;;;;;;;12.64;68.92;93244.47;5076147;28;20225;-72
2022/07/12 02:48:30;;;;;;;8.70;8.20;;;;;;;12.53;69.10;93227.28;5062600;28;20204;-70
2022/07/12 02:50:55;;;;;;;8.93;8.53;;;;;;;12.62;69.38;93225.66;5080341;28;20239;-71
2022/07/12 02:53:22;;;;;;;9.40;8.53;;;;;;;12.71;69.63;93247.56;5079555;28;20209;-72
2022/07/12 02:55:47;;;;;;;9.13;8.60;;;;;;;12.83;68.23;93243.53;5079104;28;20225;-72
2022/07/12 02:58:13;;;;;;;8.80;8.40;;;;;;;12.90;66.55;93237.97;5077465;28;20211;-72
2022/07/12 03:00:38;;;;;;;8.70;8.27;;;;;;;13.01;63.51;93247.31;5080520;28;20201;-73
2022/07/12 03:03:04;;;;;;;8.10;7.70;;;;;;;13.13;65.01;93247.72;5061409;28;20177;-72
2022/07/12 03:05:30;;;;;;;8.57;8.17;;;;;;;13.08;62.67;93263.50;5077227;28;20191;-73
2022/07/12 03:07:55;;;;;;;9.50;9.00;;;;;;;13.14;64.94;93261.59;5074804;28;20193;-72
2022/07/12 03:10:20;;;;;;;7.70;7.30;;;;;;;13.40;63.20;93252.41;5080966;28;20299;-72
2022/07/12 03:12:46;;;;;;;8.97;8.57;;;;;;;13.72;62.92;93255.19;5075484;28;20234;-70
2022/07/12 03:15:11;;;;;;;7.97;7.67;;;;;;;13.98;62.16;93217.81;5079457;28;20189;-70
2022/07/12 03:17:37;;;;;;;8.50;8.10;;;;;;;15.08;61.16;93278.38;5079929;28;20213;-70
2022/07/12 03:20:08;;;;;;;8.67;8.17;;;;;;;16.06;56.00;93267.34;5077882;28;20194;-71
2022/07/12 03:22:34;;;;;;;8.27;7.87;;;;;;;16.70;54.94;93277.53;5078697;28;20238;-70
2022/07/12 03:24:59;;;;;;;9.53;8.73;;;;;;;16.88;54.40;93276.59;5082646;28;20477;-70
2022/07/12 03:27:25;;;;;;;9.27;8.77;;;;;;;16.47;55.49;93280.47;5077399;28;20285;-71
2022/07/12 03:29:51;;;;;;;9.60;8.80;;;;;;;16.13;56.26;93273.00;5078812;28;20196;-70
2022/07/12 03:32:16;;;;;;;9.27;8.53;;;;;;;15.88;55.56;93271.66;5075889;28;20213;-70
2022/07/12 03:34:42;;;;;;;10.37;9.77;;;;;;;15.66;55.29;93278.69;5080671;28;20185;-70
2022/07/12 03:37:07;;;;;;;10.80;10.20;;;;;;;15.10;57.77;93291.25;5073115;28;20220;-70
2022/07/12 03:39:32;;;;;;;9.57;8.97;;;;;;;14.74;59.57;93275.28;5078334;28;20189;-71
2022/07/12 03:41:58;;;;;;;9.03;8.63;;;;;;;14.15;63.06;93260.09;5077561;28;20300;-69
2022/07/12 03:44:23;;;;;;;9.93;9.17;;;;;;;14.30;63.90;93285.41;5077019;28;20245;-71
2022/07/12 03:46:49;;;;;;;8.83;8.27;;;;;;;14.35;63.61;93280.88;5060845;28;20293;-70
2022/07/12 03:49:15;;;;;;;9.23;8.77;;;;;;;14.71;62.50;93275.09;5079628;28;20207;-70
2022/07/12 03:51:41;;;;;;;9.50;8.70;;;;;;;16.79;57.49;93286.31;5080520;28;20229;-71
2022/07/12 03:54:10;;;;;;;9.93;9.43;;;;;;;18.68;48.64;93291.25;5079758;28;20178;-70
2022/07/12 03:59:20;;;;;;;8.47;8.07;;;;;;;16.98;55.50;93288.75;5078924;28;20257;-70
2022/07/12 04:01:45;;;;;;;9.50;9.10;;;;;;;17.78;51.71;93264.78;5078553;28;20233;-71
2022/07/12 04:04:11;;;;;;;9.03;8.50;;;;;;;18.80;49.45;93270.25;5084112;28;20185;-70
2022/07/12 04:06:36;;;;;;;9.20;8.67;;;;;;;18.68;47.89;93278.00;5081232;28;20221;-70
2022/07/12 04:09:02;;;;;;;9.60;8.83;;;;;;;17.80;50.63;93279.25;5062790;28;20193;-70
2022/07/12 04:11:28;;;;;;;12.17;11.37;;;;;;;17.31;52.13;93288.16;5082524;28;20240;-70
2022/07/12 04:13:53;;;;;;;9.07;8.67;;;;;;;17.35;53.14;93296.28;5081568;28;20268;-69
2022/07/12 04:16:19;;;;;;;9.00;8.50;;;;;;;16.79;53.39;93294.22;5082912;28;20236;-71
2022/07/12 04:18:44;;;;;;;9.67;8.57;;;;;;;16.61;53.93;93300.41;5081912;28;20217;-70
2022/07/12 04:21:09;;;;;;;11.03;8.70;;;;;;;16.06;55.38;93305.00;5081687;28;20262;-71
2022/07/12 04:23:35;;;;;;;10.10;9.10;;;;;;;15.57;56.37;93286.50;5083401;28;20211;-74
2022/07/12 04:26:00;;;;;;;10.20;9.50;;;;;;;15.60;55.39;93301.69;5081073;28;20232;-69
2022/07/12 04:28:25;;;;;;;10.63;9.87;;;;;;;15.22;57.48;93288.97;5066109;28;20177;-71
2022/07/12 04:30:51;;;;;;;9.30;8.80;;;;;;;15.49;58.04;93310.84;5077452;28;20263;-72
2022/07/12 04:33:16;;;;;;;10.67;9.83;;;;;;;15.36;57.79;93305.53;5076159;28;21731;-72
2022/07/12 04:35:42;;;;;;;14.40;9.70;;;;;;;15.06;59.64;93316.56;5080562;28;20189;-73
2022/07/12 04:38:07;;;;;;;9.33;8.87;;;;;;;15.08;59.07;93317.06;5080146;28;20254;-72
2022/07/12 04:40:33;;;;;;;10.00;9.37;;;;;;;15.38;58.96;93319.19;5078263;28;20211;-73
2022/07/12 04:42:58;;;;;;;10.73;10.13;;;;;;;15.16;59.42;93306.66;5079658;28;20195;-72
2022/07/12 04:45:23;;;;;;;9.43;8.87;;;;;;;15.27;58.39;93320.44;5078755;28;20210;-74
2022/07/12 04:47:49;;;;;;;9.17;8.53;;;;;;;15.55;57.35;93293.09;5083267;28;20193;-72
2022/07/12 04:50:14;;;;;;;10.17;9.43;;;;;;;15.38;59.61;93313.94;5082306;28;20194;-72
2022/07/12 04:52:40;;;;;;;11.53;9.10;;;;;;;15.15;59.25;93291.16;5081273;28;20235;-72
2022/07/12 04:55:06;;;;;;;10.73;9.93;;;;;;;15.15;60.36;93325.38;5078786;28;20191;-73
2022/07/12 04:57:32;;;;;;;11.30;10.70;;;;;;;15.93;58.11;93318.19;5079014;28;20225;-72
2022/07/12 04:59:57;;;;;;;11.00;10.20;;;;;;;15.87;56.99;93316.72;5079122;28;20195;-72
2022/07/12 05:02:22;;;;;;;10.33;9.73;;;;;;;15.58;57.79;93292.53;5079380;28;20220;-72
2022/07/12 05:04:48;;;;;;;10.47;9.80;;;;;;;15.56;59.22;93326.25;5080575;28;20218;-72
2022/07/12 05:07:13;;;;;;;10.93;10.33;;;;;;;15.72;57.21;93322.28;5078328;28;20217;-72
2022/07/12 05:09:38;;;;;;;9.97;9.27;;;;;;;15.60;59.62;93314.88;5078496;28;20240;-72
2022/07/12 05:12:05;;;;;;;9.63;9.00;;;;;;;15.66;59.61;93331.31;5076642;28;20228;-73
2022/07/12 05:14:30;;;;;;;12.27;10.20;;;;;;;15.64;58.52;93297.41;5080043;28;20339;-73
2022/07/12 05:16:56;;;;;;;10.93;10.00;;;;;;;16.35;57.15;93322.31;5064600;28;20221;-73
2022/07/12 05:19:21;;;;;;;9.90;9.20;;;;;;;16.51;55.39;93326.22;5080240;28;20185;-72
2022/07/12 05:21:47;;;;;;;10.40;9.50;;;;;;;15.62;57.66;93293.50;5077676;28;20217;-72
2022/07/12 05:24:12;;;;;;;10.37;9.77;;;;;;;16.25;56.89;93333.84;5082222;28;20186;-73
2022/07/12 05:26:37;;;;;;;10.47;9.77;;;;;;;16.11;57.76;93329.69;5081282;28;20242;-72
2022/07/12 05:29:03;;;;;;;12.10;10.60;;;;;;;15.51;58.47;93313.97;5077199;28;20185;-77
2022/07/12 05:31:28;;;;;;;10.50;9.80;;;;;;;15.94;57.86;93338.16;5078651;28;20255;-71
2022/07/12 05:33:54;;;;;;;11.33;10.53;;;;;;;16.24;58.05;93324.41;5081423;28;20178;-72
2022/07/12 05:36:20;;;;;;;10.80;10.17;;;;;;;16.64;56.51;93284.00;5079706;28;20212;-72
2022/07/12 05:38:45;;;;;;;13.47;10.17;;;;;;;18.57;50.94;93340.25;5081188;28;20177;-74
2022/07/12 05:41:11;;;;;;;11.07;10.07;;;;;;;22.82;40.34;93345.88;5081060;28;20221;-73
2022/07/12 05:43:36;;;;;;;9.40;8.80;;;;;;;26.04;34.56;93349.47;5081031;28;20174;-73
2022/07/12 05:46:03;;;;;;;9.82;8.85;;;;;;;28.46;29.22;93350.03;5079537;28;20223;-72
2022/07/12 05:48:28;;;;;;;9.10;8.43;;;;;;;30.38;26.63;93367.63;5080618;28;20183;-71
2022/07/12 05:50:54;;;;;;;8.95;8.35;;;;;;;31.72;24.86;93370.97;5061004;28;20234;-73
2022/07/12 05:53:22;;;;;;;8.50;7.70;;;;;;;31.43;24.86;93381.06;5079497;28;20195;-71
2022/07/12 05:55:53;;;;;;;9.93;9.13;;;;;;;31.63;23.98;93368.66;5079728;28;20235;-72
2022/07/12 05:58:20;;;;;;;8.73;7.63;;;;;;;32.06;22.91;93359.25;5078988;28;20187;-71
2022/07/12 06:00:46;;;;;;;8.50;7.93;;;;;;;34.23;21.59;93361.13;5081696;28;20280;-72
2022/07/12 06:03:13;;;;;;;7.95;7.35;;;;;;;34.95;19.94;93368.63;5078384;28;20270;-73
2022/07/12 06:05:38;;;;;;;10.10;7.60;;;;;;;34.45;20.56;93378.69;5076997;28;20196;-72
2022/07/12 06:08:04;;;;;;;7.55;7.05;;;;;;;32.80;22.32;93366.13;5078844;28;20211;-72
2022/07/12 06:10:29;;;;;;;8.18;7.43;;;;;;;33.09;21.38;93365.50;5079246;28;20217;-72
2022/07/12 06:12:55;;;;;;;8.70;7.88;;;;;;;34.55;20.57;93377.00;5080043;28;20214;-74
2022/07/12 06:15:20;;;;;;;8.13;7.25;;;;;;;34.45;20.30;93362.41;5079182;28;20214;-73
2022/07/12 06:17:47;;;;;;;7.03;6.63;;;;;;;34.18;20.52;93365.06;5080543;28;20217;-71
2022/07/12 06:20:13;;;;;;;7.50;7.00;;;;;;;34.91;19.86;93381.50;5078350;28;20220;-70
2022/07/12 06:22:38;;;;;;;7.47;6.82;;;;;;;35.36;19.05;93376.50;5080180;28;20227;-72
2022/07/12 06:25:04;;;;;;;7.40;6.75;;;;;;;35.64;19.11;93374.00;5079593;28;20253;-70
2022/07/12 06:27:29;;;;;;;7.85;7.15;;;;;;;34.66;20.93;93361.31;5077395;28;20224;-70
2022/07/12 06:29:55;;;;;;;8.27;7.43;;;;;;;26.89;28.05;93339.00;5081710;28;20196;-70
2022/07/12 06:32:20;;;;;;;7.55;6.90;;;;;;;31.26;21.98;93354.88;5078465;28;20220;-70
2022/07/12 06:34:46;;;;;;;7.53;6.90;;;;;;;32.87;21.85;93361.44;5075820;28;20289;-70
2022/07/12 06:37:12;;;;;;;6.63;6.22;;;;;;;31.63;23.68;93363.25;5078507;28;20225;-70
2022/07/12 06:39:38;;;;;;;6.20;5.70;;;;;;;30.79;23.08;93355.31;5079648;28;20223;-69
2022/07/12 06:42:04;;;;;;;6.38;5.88;;;;;;;31.07;22.28;93355.28;5078578;28;20233;-69
2022/07/12 06:44:30;;;;;;;6.82;6.30;;;;;;;30.27;23.18;93362.22;5081530;28;20188;-69
2022/07/12 06:46:56;;;;;;;6.97;6.43;;;;;;;30.78;22.25;93356.47;5078751;28;20233;-69
2022/07/12 06:49:22;;;;;;;6.43;5.82;;;;;;;31.99;21.59;93353.88;5079064;28;20184;-68
2022/07/12 06:51:47;;;;;;;6.40;6.00;;;;;;;28.78;24.62;93340.31;5078152;28;20978;-68
2022/07/12 06:54:13;;;;;;;6.45;6.10;;;;;;;25.46;30.12;93332.69;5078754;28;20197;-70
2022/07/12 06:56:38;;;;;;;6.28;5.88;;;;;;;22.76;34.74;93326.66;5075996;28;20228;-69
2022/07/12 06:59:03;;;;;;;7.30;6.80;;;;;;;20.68;36.74;93329.44;5077307;28;20193;-70
2022/07/12 07:01:29;;;;;;;7.80;6.93;;;;;;;20.85;38.37;93325.13;5079143;28;20236;-70
2022/07/12 07:03:54;;;;;;;7.20;6.80;;;;;;;19.79;40.52;93328.97;5083348;28;20179;-70
2022/07/12 07:06:20;;;;;;;8.07;7.50;;;;;;;20.13;39.73;93328.03;5080755;28;20249;-69
2022/07/12 07:08:45;;;;;;;7.45;7.00;;;;;;;19.69;41.61;93296.72;5076576;28;20207;-70
2022/07/12 07:11:11;;;;;;;7.40;7.00;;;;;;;20.08;39.38;93314.94;5076297;28;20236;-69
2022/07/12 07:13:36;;;;;;;7.70;7.20;;;;;;;19.94;40.39;93315.16;5080073;28;20188;-70
2022/07/12 07:16:02;;;;;;;7.20;6.82;;;;;;;19.93;40.65;93321.56;5078436;28;20296;-68
2022/07/12 07:18:28;;;;;;;7.80;7.20;;;;;;;19.72;41.36;93315.41;5078876;28;20265;-69
2022/07/12 07:20:53;;;;;;;8.00;7.53;;;;;;;19.77;40.93;93331.13;5076714;28;20247;-69
2022/07/12 07:23:19;;;;;;;7.60;7.20;;;;;;;20.01;41.63;93330.59;5077822;28;20196;-70
2022/07/12 07:25:45;;;;;;;7.77;7.30;;;;;;;19.37;40.78;93313.94;5078932;28;20255;-69
2022/07/12 07:28:11;;;;;;;8.53;8.13;;;;;;;20.05;41.43;93329.63;5079059;28;20192;-69
2022/07/12 07:30:55;;;;;;;8.33;7.57;;;;;;;19.69;41.00;93331.19;5078350;28;20278;-69
2022/07/12 07:33:20;;;;;;;7.73;7.23;;;;;;;19.51;39.48;93330.44;5077786;28;20191;-67
2022/07/12 07:35:46;;;;;;;8.73;8.20;;;;;;;19.53;39.54;93317.66;5077553;28;20249;-68
2022/07/12 07:38:12;;;;;;;8.17;7.83;;;;;;;19.31;40.38;93312.56;5080974;28;20183;-69
2022/07/12 07:40:37;;;;;;;7.07;6.67;;;;;;;19.38;39.76;93323.44;5079195;28;20195;-70
2022/07/12 07:43:03;;;;;;;8.50;8.10;;;;;;;19.59;41.26;93313.75;5078658;28;20229;-68
2022/07/12 07:45:28;;;;;;;8.27;7.73;;;;;;;20.11;42.56;93320.41;5078062;28;20191;-72
2022/07/12 07:47:53;;;;;;;8.53;7.80;;;;;;;20.00;42.56;93324.50;5076364;28;20187;-71
2022/07/12 07:50:19;;;;;;;7.73;7.23;;;;;;;20.27;41.45;93318.78;5081580;28;20193;-71
2022/07/12 07:52:45;;;;;;;7.70;7.23;;;;;;;20.79;39.51;93315.81;5079287;28;20249;-71
2022/07/12 07:55:11;;;;;;;8.47;7.87;;;;;;;21.37;38.09;93324.38;5079215;28;20188;-72
2022/07/12 07:57:36;;;;;;;7.17;6.70;;;;;;;20.98;39.87;93327.53;5079252;28;20246;-70
2022/07/12 08:00:03;;;;;;;7.40;6.97;;;;;;;21.07;37.47;93324.81;5075656;28;20215;-71
2022/07/12 08:02:28;;;;;;;7.27;6.97;;;;;;;20.66;38.95;93320.25;5077150;28;20258;-71
2022/07/12 08:04:54;;;;;;;7.47;7.07;;;;;;;20.53;40.26;93311.44;5079156;28;20192;-71
2022/07/12 08:07:19;;;;;;;7.70;7.17;;;;;;;20.08;40.22;93315.72;5077245;28;20250;-70
2022/07/12 08:09:45;;;;;;;7.60;7.20;;;;;;;19.39;36.40;93316.28;5079508;28;20227;-70
2022/07/12 08:12:10;;;;;;;10.07;7.23;;;;;;;19.61;38.94;93319.47;5076684;28;20276;-71
2022/07/12 08:14:35;;;;;;;7.97;7.50;;;;;;;19.41;39.01;93306.16;5076418;28;20263;-71
2022/07/12 08:17:01;;;;;;;7.37;7.00;;;;;;;19.48;39.59;93315.19;5077700;28;20249;-69
2022/07/12 08:19:26;;;;;;;7.10;6.80;;;;;;;19.60;41.13;93294.09;5079835;28;20187;-71
2022/07/12 08:21:51;;;;;;;7.50;7.20;;;;;;;20.42;39.98;93302.31;5077330;28;20224;-70
2022/07/12 08:24:17;;;;;;;7.83;7.20;;;;;;;20.22;40.02;93295.09;5078019;28;20255;-70
2022/07/12 08:26:42;;;;;;;8.03;7.47;;;;;;;19.91;41.91;93299.13;5078823;28;20238;-70
2022/07/12 08:29:08;;;;;;;8.23;7.63;;;;;;;19.09;40.62;93300.28;5077056;28;20186;-69
2022/07/12 08:31:33;;;;;;;7.53;7.20;;;;;;;19.88;40.56;93300.53;5076876;28;20280;-70
2022/07/12 08:33:59;;;;;;;8.60;8.10;;;;;;;19.89;40.54;93299.44;5078842;28;20187;-69
2022/07/12 08:36:24;;;;;;;6.53;6.13;;;;;;;20.31;38.70;93301.13;5078486;28;20224;-68
2022/07/12 08:38:49;;;;;;;6.77;6.57;;;;;;;20.70;38.29;93303.38;5079196;28;20184;-68
2022/07/12 08:41:15;;;;;;;7.73;7.43;;;;;;;20.36;38.98;93302.81;5077220;28;20227;-68
2022/07/12 08:43:41;;;;;;;8.13;7.53;;;;;;;20.85;37.90;93301.22;5077997;28;20201;-70
2022/07/12 08:46:11;;;;;;;7.00;6.70;;;;;;;20.71;38.35;93296.19;5076602;28;20215;-69
2022/07/12 08:48:38;;;;;;;6.93;6.63;;;;;;;20.55;38.34;93293.34;5081155;28;20222;-69
2022/07/12 08:51:09;;;;;;;7.80;7.40;;;;;;;21.00;37.12;93295.34;5081557;28;20283;-69
2022/07/12 08:53:35;;;;;;;7.23;6.77;;;;;;;21.41;36.60;93289.97;5063435;28;20225;-69
2022/07/12 08:56:02;;;;;;;8.87;8.03;;;;;;;20.93;36.46;93282.59;5080263;28;20845;-67
2022/07/12 08:58:28;;;;;;;7.50;7.00;;;;;;;20.23;35.91;93290.59;5081510;28;20185;-69
2022/07/12 09:00:53;;;;;;;7.95;7.57;;;;;;;19.98;37.09;93294.91;5080217;28;20232;-69
2022/07/12 09:03:19;;;;;;;6.97;6.47;;;;;;;20.39;38.41;93295.00;5081846;28;20184;-69
2022/07/12 09:05:55;;;;;;;8.07;7.43;;;;;;;20.73;37.24;93298.53;5080076;28;20229;-69
2022/07/12 09:08:27;;;;;;;7.00;6.50;;;;;;;20.44;36.80;93286.84;5080965;28;20199;-69
2022/07/12 09:11:00;;;;;;;8.57;7.90;;;;;;;20.34;37.15;93281.91;5081982;28;20273;-69
2022/07/12 09:13:46;;;;;;;6.83;6.43;;;;;;;21.01;37.37;93299.56;5079914;28;20197;-70
2022/07/12 09:16:14;;;;;;;7.57;7.27;;;;;;;20.86;36.33;93282.31;5080871;28;20238;-70
2022/07/12 09:18:39;;;;;;;7.17;6.87;;;;;;;21.56;34.42;93284.81;5083353;28;20200;-71
2022/07/12 09:21:05;;;;;;;6.97;6.57;;;;;;;21.58;33.15;93281.81;5080052;28;20229;-71
2022/07/12 09:23:30;;;;;;;7.35;6.78;;;;;;;21.93;34.20;93289.09;5078812;28;20188;-73
2022/07/12 09:25:56;;;;;;;8.57;7.65;;;;;;;22.09;33.30;93289.22;5078985;28;20230;-74
2022/07/12 09:28:21;;;;;;;7.63;7.03;;;;;;;20.51;34.07;93275.75;5080180;28;20190;-73
2022/07/12 09:30:49;;;;;;;7.47;7.07;;;;;;;20.89;35.62;93270.31;5079985;28;20233;-72
2022/07/12 09:36:06;;;;;;;8.85;8.25;;;;;;;21.79;33.61;93277.25;5079731;28;20236;-71
2022/07/12 09:38:32;;;;;;;7.28;6.95;;;;;;;21.64;32.06;93278.63;5078839;28;20180;-72
2022/07/12 09:40:58;;;;;;;7.45;7.03;;;;;;;21.24;33.61;93277.66;5079949;28;20955;-72
2022/07/12 09:43:24;;;;;;;6.30;6.10;;;;;;;21.30;33.64;93276.34;5081045;28;20189;-71
2022/07/12 09:45:50;;;;;;;7.25;6.95;;;;;;;21.92;33.62;93286.78;5082071;28;20251;-71
2022/07/12 09:48:16;;;;;;;6.43;6.13;;;;;;;22.11;35.75;93279.03;5078940;28;20215;-73
2022/07/12 09:50:46;;;;;;;7.25;6.82;;;;;;;21.88;33.14;93275.25;5081544;28;20186;-73
2022/07/12 09:53:20;;;;;;;7.20;6.88;;;;;;;21.83;34.16;93280.78;5082152;28;20189;-71
2022/07/12 09:55:48;;;;;;;8.15;7.40;;;;;;;21.15;33.29;93281.50;5079536;28;20227;-71
2022/07/12 09:58:17;;;;;;;7.32;6.72;;;;;;;21.46;34.86;93285.25;5078204;28;20206;-71
2022/07/12 10:00:43;;;;;;;6.43;6.18;;;;;;;21.05;32.38;93273.91;5079561;28;21146;-72
2022/07/12 10:03:09;;;;;;;7.30;7.00;;;;;;;21.29;34.04;93244.78;5079206;28;20182;-72
2022/07/12 10:05:35;;;;;;;6.85;6.35;;;;;;;21.49;35.74;93275.84;5078409;28;20227;-72
2022/07/12 10:08:01;;;;;;;6.28;5.88;;;;;;;21.36;33.58;93259.09;5077976;28;20257;-72
2022/07/12 10:10:28;;;;;;;7.63;7.28;;;;;;;21.02;34.14;93261.28;5077162;28;20217;-72
2022/07/12 10:12:54;;;;;;;7.40;6.88;;;;;;;21.03;34.16;93281.44;5078683;28;20209;-71
2022/07/12 10:15:25;;;;;;;7.88;7.43;;;;;;;21.32;36.67;93283.97;5078871;28;20185;-72
2022/07/12 10:17:59;;;;;;;6.97;6.68;;;;;;;21.79;33.68;93262.06;5079116;28;20215;-73
2022/07/12 10:20:26;;;;;;;6.43;6.22;;;;;;;21.39;33.23;93276.22;5078523;28;20249;-74
2022/07/12 10:23:20;;;;;;;7.55;7.25;;;;;;;21.15;33.32;93274.31;5077836;28;20221;-72
2022/07/12 10:25:49;;;;;;;6.82;6.43;;;;;;;21.46;32.62;93241.94;5079563;28;20266;-69
2022/07/12 10:28:14;;;;;;;7.50;7.10;;;;;;;21.17;33.19;93271.31;5079129;28;20184;-72
2022/07/12 10:30:45;;;;;;;6.88;6.45;;;;;;;21.06;34.37;93264.88;5077912;28;20189;-70
2022/07/12 10:33:21;;;;;;;7.07;6.78;;;;;;;21.06;33.14;93255.00;5077116;28;20209;-71
2022/07/12 10:36:00;;;;;;;7.55;6.82;;;;;;;21.21;32.99;93269.56;5075868;28;20238;-71
2022/07/12 10:38:26;;;;;;;9.45;7.20;;;;;;;20.79;32.18;93260.06;5079543;28;20219;-69
2022/07/12 10:40:52;;;;;;;7.90;7.50;;;;;;;21.08;33.26;93254.66;5078126;28;20289;-73
2022/07/12 10:43:21;;;;;;;7.30;6.85;;;;;;;21.04;32.38;93259.09;5079453;28;20201;-72
2022/07/12 10:45:47;;;;;;;6.82;6.22;;;;;;;21.16;31.81;93249.28;5079202;28;20217;-72
2022/07/12 10:48:12;;;;;;;7.85;7.35;;;;;;;20.86;32.20;93262.97;5059752;28;20188;-71
2022/07/12 10:50:48;;;;;;;6.93;6.63;;;;;;;21.31;32.52;93261.94;5078793;28;20202;-69
2022/07/12 10:53:29;;;;;;;8.25;7.85;;;;;;;21.09;31.92;93254.34;5078802;28;21211;-69
2022/07/12 10:56:04;;;;;;;7.90;7.50;;;;;;;21.11;32.67;93256.66;5078952;28;20243;-69
2022/07/12 10:58:38;;;;;;;7.60;7.28;;;;;;;21.21;31.01;93261.59;5079302;28;20599;-71
2022/07/12 11:01:12;;;;;;;7.28;6.80;;;;;;;20.69;32.06;93254.06;5078576;28;20224;-71
2022/07/12 11:03:49;;;;;;;8.23;7.65;;;;;;;20.84;32.43;93265.19;5078357;28;20183;-72
2022/07/12 11:06:25;;;;;;;6.87;6.60;;;;;;;21.12;32.29;93250.28;5079183;28;20224;-71
2022/07/12 11:09:02;;;;;;;6.78;6.47;;;;;;;21.01;32.28;93257.09;5060753;28;20194;-72
2022/07/12 11:11:29;;;;;;;6.68;6.28;;;;;;;21.07;31.41;93253.13;5077890;28;20242;-73
2022/07/12 11:13:56;;;;;;;7.45;7.15;;;;;;;21.47;31.43;93264.75;5080175;28;20211;-72
2022/07/12 11:16:23;;;;;;;6.22;5.93;;;;;;;21.19;31.42;93242.53;5061832;28;20225;-71
2022/07/12 11:18:49;;;;;;;7.32;6.82;;;;;;;21.22;32.08;93255.16;5076562;28;20176;-69
2022/07/12 11:21:15;;;;;;;8.07;7.40;;;;;;;21.43;32.38;93237.28;5076081;28;20234;-70
2022/07/12 11:23:41;;;;;;;7.57;7.18;;;;;;;21.01;31.02;93246.47;5080400;28;20184;-71
2022/07/12 11:26:08;;;;;;;7.15;6.75;;;;;;;21.51;31.69;93271.72;5077256;28;20216;-69
2022/07/12 11:28:33;;;;;;;6.68;6.38;;;;;;;21.85;29.60;93262.63;5075471;28;20187;-71
2022/07/12 11:31:17;;;;;;;9.85;9.20;;;;;;;21.24;32.59;93234.38;5075241;28;20259;-71
2022/07/12 11:33:48;;;;;;;7.47;7.10;;;;;;;21.20;32.62;93262.69;5079981;28;20211;-71